Time;durP1;ratioP1;P1;durP2;ratioP2;P2;SDS_P1;SDS_P2;PMS_P1;PMS_P2;Temp;Humidity;BMP_temperature;BMP_pressure;BME280_temperature;BME280_humidity;BME280_pressure;Samples;Min_cycle;Max_cycle;Signal;HPM_P1;HPM_P2
2022/08/15 00:01:11;;;;;;;4.43;2.50;;;;;;;21.82;50.49;96363.56;5010088;28;20045;-58
2022/08/15 00:03:44;;;;;;;4.60;2.65;;;;;;;21.75;51.22;96357.88;5010132;28;20120;-57
2022/08/15 00:06:41;;;;;;;5.68;2.95;;;;;;;21.74;51.43;96347.97;5026219;28;20046;-58
2022/08/15 00:09:17;;;;;;;6.35;2.65;;;;;;;21.52;51.62;96338.31;5025561;28;20559;-57
2022/08/15 00:11:49;;;;;;;6.28;2.92;;;;;;;21.54;50.94;96331.28;5026377;28;20045;-58
2022/08/15 00:14:36;;;;;;;4.82;2.67;;;;;;;21.56;52.01;96328.19;5025568;28;20048;-58
2022/08/15 00:17:09;;;;;;;4.63;2.78;;;;;;;21.56;51.93;96317.16;5019653;28;20116;-58
2022/08/15 00:19:44;;;;;;;4.93;2.70;;;;;;;21.59;51.43;96308.19;5022331;28;20088;-58
2022/08/15 00:22:11;;;;;;;4.28;2.72;;;;;;;21.55;51.29;96312.78;5020140;28;20042;-59
2022/08/15 00:24:47;;;;;;;3.78;2.58;;;;;;;21.37;52.74;96318.59;5025728;28;20040;-59
2022/08/15 00:27:19;;;;;;;5.90;3.20;;;;;;;21.32;52.82;96318.84;5024805;28;20338;-57
2022/08/15 00:29:51;;;;;;;5.25;2.70;;;;;;;21.31;53.08;96325.50;5024940;28;20041;-58
2022/08/15 00:32:23;;;;;;;4.30;2.83;;;;;;;21.24;53.15;96323.34;5020177;28;20047;-58
2022/08/15 00:35:36;;;;;;;4.90;2.83;;;;;;;21.29;52.76;96328.59;5017299;28;20476;-58
2022/08/15 00:38:09;;;;;;;5.25;2.72;;;;;;;21.31;52.63;96337.31;5006141;28;20052;-58
2022/08/15 00:43:33;;;;;;;4.28;2.75;;;;;;;21.28;53.84;96354.53;5023805;28;20042;-58
2022/08/15 00:46:05;;;;;;;4.63;2.95;;;;;;;21.14;54.76;96365.09;5017419;28;20042;-58
2022/08/15 00:48:50;;;;;;;5.13;2.70;;;;;;;21.11;54.59;96369.34;5015964;28;20073;-57
2022/08/15 00:51:43;;;;;;;3.70;2.70;;;;;;;21.12;54.55;96350.91;5013504;28;20069;-57
2022/08/15 00:54:38;;;;;;;4.88;2.80;;;;;;;21.10;54.86;96358.69;5006004;28;20048;-58
2022/08/15 00:57:25;;;;;;;6.05;3.13;;;;;;;21.00;55.22;96363.50;5011014;28;20057;-59
2022/08/15 01:00:21;;;;;;;5.13;2.80;;;;;;;21.02;54.69;96360.41;5015674;28;20390;-57
2022/08/15 01:03:07;;;;;;;4.10;2.70;;;;;;;20.92;55.38;96365.25;5012208;28;20048;-56
2022/08/15 01:05:46;;;;;;;5.15;3.00;;;;;;;20.81;55.45;96366.81;5008127;28;20307;-58
2022/08/15 01:08:23;;;;;;;4.28;2.92;;;;;;;20.58;56.23;96360.97;5005407;28;20069;-59
2022/08/15 01:11:16;;;;;;;4.47;3.03;;;;;;;20.35;57.70;96359.44;5013684;28;20042;-58
2022/08/15 01:13:44;;;;;;;4.07;2.78;;;;;;;20.42;58.69;96363.59;5023651;28;20045;-58
2022/08/15 01:16:31;;;;;;;4.63;2.72;;;;;;;20.48;60.32;96359.47;5016685;28;20033;-57
2022/08/15 01:19:16;;;;;;;4.40;2.97;;;;;;;20.32;60.36;96360.16;5023373;28;20053;-58
2022/08/15 01:21:49;;;;;;;4.05;2.70;;;;;;;20.28;60.31;96370.22;5017805;28;20065;-59
2022/08/15 01:24:29;;;;;;;4.43;3.13;;;;;;;20.14;60.73;96363.09;5010023;28;20104;-57
2022/08/15 01:27:18;;;;;;;5.38;3.00;;;;;;;20.12;60.06;96370.06;5023964;28;20042;-58
2022/08/15 01:29:46;;;;;;;5.10;2.90;;;;;;;20.01;60.39;96372.41;5020412;28;20045;-58
2022/08/15 01:32:14;;;;;;;5.13;2.90;;;;;;;19.99;60.35;96372.78;5012226;28;20053;-59
2022/08/15 01:34:41;;;;;;;4.25;3.15;;;;;;;19.93;60.78;96376.84;5005281;28;20046;-57
2022/08/15 01:37:11;;;;;;;4.55;2.97;;;;;;;19.57;62.09;96381.03;5008662;28;20569;-56
2022/08/15 01:39:46;;;;;;;5.47;2.97;;;;;;;19.53;62.42;96372.66;5021131;28;20049;-57
2022/08/15 01:42:29;;;;;;;5.28;3.35;;;;;;;19.61;62.02;96369.03;5018461;28;20042;-59
2022/08/15 01:45:14;;;;;;;6.38;3.40;;;;;;;19.75;61.78;96367.94;5008262;28;20041;-56
2022/08/15 01:48:00;;;;;;;4.15;2.90;;;;;;;19.84;60.67;96367.88;5025244;28;20405;-59
2022/08/15 01:50:35;;;;;;;4.95;3.38;;;;;;;19.84;62.39;96371.44;5023294;28;20061;-56
2022/08/15 01:53:02;;;;;;;5.32;3.33;;;;;;;19.67;63.20;96371.56;5013325;28;20512;-57
2022/08/15 01:55:59;;;;;;;7.25;3.00;;;;;;;19.64;63.15;96370.31;5033893;28;20042;-58
2022/08/15 01:58:29;;;;;;;4.20;2.80;;;;;;;19.76;62.30;96366.84;5010969;28;20140;-58
2022/08/15 02:01:12;;;;;;;5.13;3.20;;;;;;;19.74;62.66;96361.66;5007194;28;20257;-58
2022/08/15 02:03:41;;;;;;;5.57;3.33;;;;;;;19.92;61.29;96368.94;5018995;28;20045;-57
2022/08/15 02:06:27;;;;;;;4.80;3.20;;;;;;;19.89;62.34;96363.00;5013363;28;20224;-58
2022/08/15 02:09:07;;;;;;;5.72;3.10;;;;;;;20.01;61.14;96353.19;5023994;28;20549;-58
2022/08/15 02:11:56;;;;;;;5.63;3.22;;;;;;;20.15;60.33;96352.88;5022758;28;20128;-56
2022/08/15 02:14:31;;;;;;;5.40;3.45;;;;;;;20.10;61.71;96358.59;5014279;28;20045;-57
2022/08/15 02:17:11;;;;;;;5.53;3.40;;;;;;;19.98;62.28;96359.34;5014422;28;20115;-57
2022/08/15 02:19:41;;;;;;;4.95;3.10;;;;;;;19.94;62.18;96359.22;5022815;28;20081;-56
2022/08/15 02:22:21;;;;;;;7.75;3.35;;;;;;;20.04;61.38;96363.50;5013595;28;20052;-57
2022/08/15 02:24:55;;;;;;;7.80;3.40;;;;;;;20.06;61.09;96369.47;5009790;28;20297;-59
2022/08/15 02:27:24;;;;;;;6.40;3.63;;;;;;;20.15;60.64;96358.38;5013344;28;20270;-58
2022/08/15 02:29:52;;;;;;;5.40;3.30;;;;;;;20.15;61.11;96361.13;5026955;28;20045;-58
2022/08/15 02:32:20;;;;;;;7.18;3.10;;;;;;;20.19;60.93;96364.81;5012874;28;20045;-58
2022/08/15 02:34:57;;;;;;;8.68;3.33;;;;;;;20.27;59.57;96363.91;5025396;28;20050;-58
2022/08/15 02:37:25;;;;;;;5.70;3.15;;;;;;;20.07;61.43;96368.34;5024515;28;20107;-56
2022/08/15 02:39:52;;;;;;;5.70;3.55;;;;;;;19.80;62.65;96372.44;5024948;28;20265;-56
2022/08/15 02:42:39;;;;;;;9.05;3.83;;;;;;;19.74;63.26;96383.63;5010307;28;20060;-56
2022/08/15 02:45:14;;;;;;;5.47;3.20;;;;;;;19.75;63.06;96370.69;5014718;28;20038;-57
2022/08/15 02:47:43;;;;;;;6.28;3.28;;;;;;;19.85;62.00;96364.81;5009467;28;20087;-56
2022/08/15 02:50:13;;;;;;;5.28;3.25;;;;;;;19.98;61.47;96362.09;5020704;28;20217;-58
2022/08/15 02:52:47;;;;;;;6.40;3.05;;;;;;;20.01;61.99;96369.66;5025794;28;20045;-56
2022/08/15 02:55:18;;;;;;;6.15;3.30;;;;;;;19.98;62.22;96371.16;5020904;28;20505;-59
2022/08/15 02:57:48;;;;;;;6.22;3.60;;;;;;;20.18;61.41;96363.22;5008445;28;20096;-56
2022/08/15 03:00:29;;;;;;;6.47;3.58;;;;;;;20.24;61.78;96364.56;5021390;28;20044;-57
2022/08/15 03:03:07;;;;;;;5.50;3.15;;;;;;;20.30;61.62;96372.63;5012528;28;20053;-58
2022/08/15 03:05:37;;;;;;;7.00;3.38;;;;;;;20.26;61.68;96365.06;5010894;28;20143;-58
2022/08/15 03:08:08;;;;;;;6.18;3.20;;;;;;;20.33;61.74;96367.25;5017502;28;20049;-57
2022/08/15 03:10:37;;;;;;;6.68;3.78;;;;;;;20.30;62.23;96372.63;5022574;28;20061;-57
2022/08/15 03:13:11;;;;;;;6.97;3.45;;;;;;;20.29;62.46;96369.06;5006086;28;20053;-57
2022/08/15 03:15:39;;;;;;;6.38;3.55;;;;;;;20.33;62.43;96375.50;5021622;28;20125;-57
2022/08/15 03:18:08;;;;;;;6.75;3.58;;;;;;;20.26;62.95;96370.56;5005698;28;20485;-58
2022/08/15 03:20:37;;;;;;;6.47;3.30;;;;;;;20.23;63.30;96376.72;5016371;28;20418;-56
2022/08/15 03:23:07;;;;;;;7.55;3.33;;;;;;;20.14;64.07;96384.25;5014858;28;20042;-57
2022/08/15 03:25:43;;;;;;;7.07;3.25;;;;;;;20.08;64.53;96386.41;5010465;28;20037;-58
2022/08/15 03:28:23;;;;;;;7.70;2.85;;;;;;;20.03;65.22;96389.38;5013729;28;20509;-56
2022/08/15 03:30:58;;;;;;;6.93;3.15;;;;;;;19.83;66.50;96389.03;5019127;28;20523;-57
2022/08/15 03:33:27;;;;;;;5.93;3.55;;;;;;;19.87;67.07;96391.94;5010016;28;20045;-58
2022/08/15 03:36:20;;;;;;;6.60;2.92;;;;;;;19.91;70.59;96390.13;5012746;28;20061;-58
2022/08/15 03:38:50;;;;;;;6.18;2.92;;;;;;;19.78;70.90;96386.50;5022155;28;20413;-58
2022/08/15 03:41:21;;;;;;;9.23;3.10;;;;;;;19.62;72.88;96383.59;5021134;28;20042;-58
2022/08/15 03:43:49;;;;;;;6.53;3.30;;;;;;;19.31;74.70;96379.31;5008399;28;20417;-57
2022/08/15 03:46:20;;;;;;;6.20;3.55;;;;;;;18.87;77.83;96388.56;5016476;28;20041;-58
2022/08/15 03:48:53;;;;;;;5.43;3.40;;;;;;;18.76;79.61;96395.56;5022472;28;20703;-57
2022/08/15 03:51:28;;;;;;;7.53;3.47;;;;;;;18.78;79.58;96393.28;5020717;28;20429;-58
2022/08/15 03:54:01;;;;;;;5.68;3.40;;;;;;;18.90;79.24;96385.16;5023264;28;20460;-58
2022/08/15 03:56:32;;;;;;;6.32;3.20;;;;;;;18.89;81.68;96375.31;5019098;28;20049;-58
2022/08/15 03:59:01;;;;;;;5.37;3.60;;;;;;;18.81;80.70;96385.22;5005156;28;20081;-58
2022/08/15 04:01:32;;;;;;;9.15;3.67;;;;;;;18.86;79.31;96384.22;5005316;28;20630;-58
2022/08/15 04:04:04;;;;;;;5.93;3.42;;;;;;;18.79;79.76;96381.19;5024286;28;20099;-58
2022/08/15 04:06:40;;;;;;;8.00;3.15;;;;;;;18.81;79.62;96382.47;5016308;28;20405;-57
2022/08/15 04:09:07;;;;;;;7.07;3.55;;;;;;;18.69;79.17;96380.41;5021155;28;20129;-58
2022/08/15 04:11:45;;;;;;;4.95;3.30;;;;;;;18.79;79.25;96383.94;5017896;28;20046;-57
2022/08/15 04:14:30;;;;;;;7.20;3.15;;;;;;;18.80;79.66;96394.56;5005120;28;20056;-57
2022/08/15 04:17:08;;;;;;;6.95;3.78;;;;;;;18.71;84.60;96385.56;5007784;28;20042;-56
2022/08/15 04:19:45;;;;;;;6.22;3.50;;;;;;;18.58;82.36;96384.69;5005716;28;20053;-56
2022/08/15 04:22:34;;;;;;;5.80;3.55;;;;;;;18.66;81.09;96392.06;5010569;28;20132;-57
2022/08/15 04:25:22;;;;;;;6.40;3.78;;;;;;;18.71;81.08;96391.06;5010348;28;20050;-57
2022/08/15 04:27:51;;;;;;;6.97;4.00;;;;;;;18.65;82.63;96395.91;5015723;28;20037;-57
2022/08/15 04:30:27;;;;;;;8.60;3.72;;;;;;;18.51;82.89;96396.16;5024111;28;20547;-57
2022/08/15 04:33:04;;;;;;;5.38;3.80;;;;;;;18.31;84.65;96397.66;5021000;28;20524;-56
2022/08/15 04:35:54;;;;;;;6.88;3.35;;;;;;;18.23;85.39;96404.75;5010857;28;20137;-57
2022/08/15 04:38:21;;;;;;;5.10;3.40;;;;;;;18.06;85.68;96411.06;5015045;28;20628;-57
2022/08/15 04:40:49;;;;;;;8.90;3.58;;;;;;;17.97;86.49;96413.00;5017167;28;20156;-57
2022/08/15 04:43:39;;;;;;;4.93;3.60;;;;;;;17.93;86.10;96416.41;5022289;28;20498;-57
2022/08/15 04:46:13;;;;;;;8.52;4.15;;;;;;;17.99;86.32;96417.00;5017319;28;20048;-58
2022/08/15 04:48:52;;;;;;;6.43;3.47;;;;;;;17.99;85.33;96425.22;5021001;28;20540;-57
2022/08/15 04:51:19;;;;;;;6.60;3.78;;;;;;;17.90;85.57;96421.69;5020199;28;20068;-57
2022/08/15 04:54:03;;;;;;;5.53;3.05;;;;;;;17.91;84.05;96421.38;5014613;28;20071;-57
2022/08/15 04:56:29;;;;;;;6.35;3.88;;;;;;;18.07;82.83;96429.09;5005950;28;20137;-56
2022/08/15 04:59:16;;;;;;;4.97;3.25;;;;;;;18.31;81.18;96431.34;5011338;28;20049;-55
2022/08/15 05:02:00;;;;;;;5.47;3.00;;;;;;;18.52;79.57;96427.91;5017283;28;20114;-56
2022/08/15 05:04:47;;;;;;;5.60;3.40;;;;;;;18.65;79.01;96419.81;5017149;28;20046;-58
2022/08/15 05:07:16;;;;;;;6.75;3.58;;;;;;;18.66;78.83;96418.66;5017232;28;20045;-57
2022/08/15 05:09:43;;;;;;;7.93;3.70;;;;;;;18.72;78.83;96422.81;5017617;28;20052;-56
2022/08/15 05:12:35;;;;;;;5.72;3.22;;;;;;;18.73;78.69;96424.44;5013107;28;20045;-58
2022/08/15 05:15:02;;;;;;;6.10;2.78;;;;;;;18.79;78.12;96420.38;5012943;28;20041;-57
2022/08/15 05:17:31;;;;;;;5.55;3.00;;;;;;;18.92;77.08;96412.25;5019447;28;20069;-56
2022/08/15 05:20:19;;;;;;;6.53;3.38;;;;;;;18.97;76.76;96412.06;5021718;28;20560;-57
2022/08/15 05:23:04;;;;;;;4.43;2.80;;;;;;;18.96;76.37;96411.28;5020567;28;20864;-57
2022/08/15 05:25:43;;;;;;;5.45;3.17;;;;;;;18.96;76.06;96413.19;5013642;28;20565;-56
2022/08/15 05:28:13;;;;;;;5.25;2.55;;;;;;;19.06;75.82;96404.63;5017362;28;20088;-56
2022/08/15 05:30:59;;;;;;;6.53;3.63;;;;;;;18.91;75.88;96394.19;5006031;28;20481;-56
2022/08/15 05:33:44;;;;;;;6.90;2.67;;;;;;;18.76;76.64;96396.34;5021661;28;20508;-55
2022/08/15 05:36:25;;;;;;;6.07;2.90;;;;;;;18.96;75.98;96394.00;5015672;28;20121;-56
2022/08/15 05:39:17;;;;;;;5.78;2.67;;;;;;;18.79;76.73;96411.38;5024338;28;20800;-57
2022/08/15 05:42:01;;;;;;;5.43;2.67;;;;;;;18.70;76.40;96398.50;5020425;28;20046;-55
2022/08/15 05:45:01;;;;;;;4.47;2.42;;;;;;;18.67;76.29;96395.59;5014559;28;20053;-57
2022/08/15 05:47:47;;;;;;;5.00;2.47;;;;;;;18.85;75.51;96402.63;5025703;28;20042;-58
2022/08/15 05:50:20;;;;;;;;;;;;;;;18.83;75.80;96398.56;5023870;28;20049;-57
2022/08/15 05:53:05;;;;;;;;;;;;;;;18.78;76.56;96393.28;5023842;28;19952;-56
2022/08/15 05:55:40;;;;;;;5.70;2.75;;;;;;;18.85;77.02;96388.09;5020755;28;19929;-57
2022/08/15 05:58:23;;;;;;;6.03;2.58;;;;;;;18.95;79.46;96375.94;5024498;28;20296;-57
2022/08/15 06:01:37;;;;;;;4.60;2.60;;;;;;;18.92;77.31;96374.69;5026709;28;20049;-57
2022/08/15 06:04:17;;;;;;;4.78;2.20;;;;;;;19.02;74.63;96380.91;5013520;28;20539;-59
2022/08/15 06:07:05;;;;;;;6.20;2.35;;;;;;;18.95;76.77;96382.22;5018953;28;20042;-58
2022/08/15 06:09:38;;;;;;;8.52;2.63;;;;;;;18.93;75.22;96403.69;5024123;28;20051;-57
2022/08/15 06:12:16;;;;;;;4.38;2.40;;;;;;;18.74;76.39;96404.13;5017207;28;20057;-57
2022/08/15 06:15:00;;;;;;;6.43;2.20;;;;;;;18.63;76.51;96405.59;5018518;28;20064;-55
2022/08/15 06:17:40;;;;;;;5.53;2.05;;;;;;;18.44;76.31;96410.38;5022147;28;20397;-58
2022/08/15 06:20:10;;;;;;;3.88;2.00;;;;;;;18.31;76.72;96403.94;5040571;28;20121;-58
2022/08/15 06:23:05;;;;;;;4.13;2.30;;;;;;;18.56;76.17;96406.13;5024339;28;20045;-58
2022/08/15 06:26:02;;;;;;;4.30;2.47;;;;;;;18.46;76.08;96412.75;5020893;28;20423;-57
2022/08/15 06:28:47;;;;;;;4.25;1.92;;;;;;;18.45;76.32;96411.97;5019548;28;20080;-56
2022/08/15 06:31:24;;;;;;;4.68;2.38;;;;;;;18.52;76.17;96421.59;5020188;28;20262;-57
2022/08/15 06:34:15;;;;;;;4.82;2.20;;;;;;;18.45;76.11;96433.88;5022784;28;20324;-57
2022/08/15 06:37:27;;;;;;;4.30;2.05;;;;;;;18.58;75.90;96434.03;5022927;28;20073;-57
2022/08/15 06:40:08;;;;;;;5.45;2.13;;;;;;;18.69;74.46;96428.97;5024077;28;20289;-57
2022/08/15 06:42:41;;;;;;;5.22;2.28;;;;;;;18.64;75.14;96434.66;5021565;28;20128;-57
2022/08/15 06:45:19;;;;;;;4.90;1.95;;;;;;;18.77;74.36;96432.81;5014659;28;20068;-56
2022/08/15 06:47:47;;;;;;;5.10;1.90;;;;;;;18.97;72.92;96434.81;5024044;28;20049;-57
2022/08/15 06:50:28;;;;;;;5.13;2.28;;;;;;;18.89;73.57;96432.91;5022279;28;20053;-58
2022/08/15 06:53:03;;;;;;;7.18;3.33;;;;;;;18.96;72.97;96435.97;5024695;28;20531;-58
2022/08/15 06:55:48;;;;;;;5.07;2.17;;;;;;;19.11;73.02;96439.28;5022681;28;20050;-58
2022/08/15 06:58:37;;;;;;;3.97;2.05;;;;;;;19.23;72.43;96433.09;5019958;28;20055;-57
2022/08/15 07:01:43;;;;;;;4.35;2.45;;;;;;;19.28;72.19;96435.66;5024299;28;20760;-58
2022/08/15 07:04:52;;;;;;;5.15;2.08;;;;;;;19.42;70.49;96442.84;5025583;28;20037;-58
2022/08/15 07:07:58;;;;;;;4.05;1.98;;;;;;;19.49;70.15;96438.41;5021965;28;20042;-58
2022/08/15 07:10:34;;;;;;;3.80;2.17;;;;;;;19.48;70.58;96441.50;5021913;28;20049;-56
2022/08/15 07:13:11;;;;;;;5.13;2.35;;;;;;;19.49;70.36;96445.84;5022218;28;20129;-57
2022/08/15 07:15:56;;;;;;;3.40;1.90;;;;;;;19.37;70.84;96446.56;5022293;28;20521;-58
2022/08/15 07:18:45;;;;;;;3.85;2.00;;;;;;;19.37;70.68;96438.34;5020105;28;20521;-58
2022/08/15 07:21:35;;;;;;;3.13;1.90;;;;;;;19.58;69.79;96435.63;5020496;28;20053;-58
2022/08/15 07:24:28;;;;;;;5.43;2.30;;;;;;;19.87;68.86;96439.41;5020755;28;20050;-56
2022/08/15 07:27:04;;;;;;;5.03;2.10;;;;;;;20.08;68.20;96435.09;5022435;28;20068;-58
2022/08/15 07:29:44;;;;;;;3.70;1.83;;;;;;;20.22;66.91;96434.78;5020213;28;20108;-57
2022/08/15 07:32:43;;;;;;;4.75;2.10;;;;;;;20.02;67.35;96442.72;5007821;28;20119;-57
2022/08/15 07:35:12;;;;;;;3.30;2.00;;;;;;;20.12;67.14;96449.75;5014713;28;20050;-58
2022/08/15 07:37:51;;;;;;;2.92;1.77;;;;;;;20.38;65.72;96443.19;5022670;28;20041;-58
2022/08/15 07:40:32;;;;;;;3.97;1.90;;;;;;;20.63;64.62;96438.56;5018906;28;20046;-57
2022/08/15 07:43:28;;;;;;;2.70;1.77;;;;;;;20.70;64.92;96445.41;5006288;28;20104;-58
2022/08/15 07:46:34;;;;;;;3.72;1.92;;;;;;;21.11;63.68;96440.91;5012189;28;20088;-57
2022/08/15 07:49:07;;;;;;;4.22;2.30;;;;;;;21.17;63.65;96441.47;5021424;28;20044;-57
2022/08/15 07:51:41;;;;;;;3.60;2.15;;;;;;;20.80;64.87;96451.28;5019499;28;20125;-57
2022/08/15 07:54:38;;;;;;;3.75;2.33;;;;;;;20.60;66.16;96449.44;5022427;28;20045;-56
2022/08/15 07:57:20;;;;;;;3.47;2.05;;;;;;;20.80;65.56;96458.75;5019113;28;20054;-58
2022/08/15 08:00:27;;;;;;;3.90;2.38;;;;;;;20.71;65.54;96455.31;5014227;28;20556;-58
2022/08/15 08:03:18;;;;;;;4.43;2.45;;;;;;;20.63;65.77;96466.06;5021006;28;20161;-57
2022/08/15 08:06:05;;;;;;;4.32;2.20;;;;;;;20.60;65.80;96472.22;5022755;28;20069;-58
2022/08/15 08:09:14;;;;;;;3.85;1.92;;;;;;;20.68;64.97;96476.03;5018285;28;20049;-58
2022/08/15 08:11:46;;;;;;;4.68;2.25;;;;;;;20.55;65.97;96458.69;5038886;28;20054;-58
2022/08/15 08:14:48;;;;;;;3.92;2.15;;;;;;;20.68;65.07;96451.28;5019475;28;20054;-58
2022/08/15 08:17:28;;;;;;;4.68;2.50;;;;;;;20.69;65.65;96452.88;5010632;28;20045;-58
2022/08/15 08:20:29;;;;;;;4.00;2.20;;;;;;;21.20;64.63;96456.50;5021715;28;20053;-58
2022/08/15 08:23:06;;;;;;;3.55;1.98;;;;;;;21.44;61.02;96462.00;5019027;28;20056;-57
2022/08/15 08:26:01;;;;;;;4.53;2.10;;;;;;;21.46;59.87;96463.59;5019522;28;20136;-60
2022/08/15 08:29:04;;;;;;;4.78;2.10;;;;;;;21.06;60.97;96471.41;5022683;28;20521;-58
2022/08/15 08:32:03;;;;;;;3.33;1.52;;;;;;;21.22;60.17;96465.22;5016678;28;20568;-58
2022/08/15 08:34:56;;;;;;;3.33;1.83;;;;;;;21.32;59.10;96456.50;5014479;28;20675;-58
2022/08/15 08:37:45;;;;;;;4.50;1.90;;;;;;;21.60;58.55;96453.03;5009582;28;20062;-58
2022/08/15 08:44:08;;;;;;;4.53;2.00;;;;;;;21.91;57.42;96459.88;5019942;28;20056;-57
2022/08/15 08:47:07;;;;;;;2.20;1.50;;;;;;;22.33;56.43;96461.41;5022274;28;20045;-57
2022/08/15 08:49:39;;;;;;;2.78;1.38;;;;;;;22.54;54.92;96460.38;5018825;28;20498;-58
2022/08/15 08:52:43;;;;;;;2.83;1.52;;;;;;;22.54;54.57;96468.66;5023362;28;20107;-59
2022/08/15 08:55:39;;;;;;;4.28;1.40;;;;;;;22.76;53.53;96463.75;5021511;28;20049;-58
2022/08/15 08:58:18;;;;;;;2.33;1.48;;;;;;;22.77;52.85;96468.09;5023877;28;20055;-58
2022/08/15 09:01:07;;;;;;;4.20;1.38;;;;;;;23.09;52.30;96478.34;5022938;28;20128;-57
2022/08/15 09:03:41;;;;;;;2.50;1.45;;;;;;;23.25;51.68;96481.09;5023349;28;20431;-58
2022/08/15 09:06:12;;;;;;;3.60;1.40;;;;;;;23.03;51.49;96468.75;5023663;28;20041;-58
2022/08/15 09:09:11;;;;;;;2.72;1.42;;;;;;;22.94;52.01;96474.44;5012042;28;20045;-58
2022/08/15 09:11:42;;;;;;;2.55;1.30;;;;;;;22.90;51.13;96466.06;5023679;28;20053;-58
2022/08/15 09:14:17;;;;;;;2.70;1.50;;;;;;;23.14;51.46;96472.53;5023191;28;20049;-58
2022/08/15 09:17:10;;;;;;;3.13;1.23;;;;;;;23.44;51.00;96474.06;5012432;28;20042;-57
2022/08/15 09:20:20;;;;;;;2.40;1.15;;;;;;;23.50;50.74;96481.72;5023205;28;20455;-57
2022/08/15 09:22:49;;;;;;;2.80;1.33;;;;;;;23.26;51.00;96469.69;5022994;28;20064;-58
2022/08/15 09:25:19;;;;;;;2.80;1.20;;;;;;;23.29;51.02;96465.41;5022995;28;20077;-60
2022/08/15 09:28:08;;;;;;;2.60;1.30;;;;;;;23.02;51.18;96470.69;5023603;28;20041;-60
2022/08/15 09:30:56;;;;;;;3.88;1.35;;;;;;;23.16;51.21;96464.72;5022905;28;20049;-60
2022/08/15 09:33:24;;;;;;;2.67;1.33;;;;;;;23.35;50.77;96466.78;5023405;28;20501;-60
2022/08/15 09:36:02;;;;;;;2.05;1.20;;;;;;;23.42;50.55;96465.34;5021337;28;20103;-61
2022/08/15 09:38:58;;;;;;;3.95;1.38;;;;;;;23.27;50.25;96462.22;5018184;28;20398;-60
2022/08/15 09:41:58;;;;;;;3.70;1.27;;;;;;;23.23;50.00;96456.63;5022681;28;20310;-60
2022/08/15 09:44:54;;;;;;;3.35;1.70;;;;;;;23.41;49.51;96455.44;5020111;28;20231;-60
2022/08/15 09:47:45;;;;;;;3.40;1.60;;;;;;;23.68;49.13;96456.44;5008144;28;20069;-60
2022/08/15 09:50:29;;;;;;;2.88;1.27;;;;;;;23.69;47.00;96460.81;5019447;28;20073;-60
2022/08/15 09:53:41;;;;;;;2.72;1.30;;;;;;;23.81;45.77;96454.34;5020063;28;20049;-61
2022/08/15 09:56:30;;;;;;;2.45;1.63;;;;;;;23.75;46.36;96448.31;5015396;28;20053;-60
2022/08/15 09:59:15;;;;;;;2.42;1.40;;;;;;;23.82;46.02;96446.88;5023047;28;20049;-60
2022/08/15 10:02:09;;;;;;;2.28;1.35;;;;;;;23.99;45.67;96445.66;5022111;28;20053;-60
2022/08/15 10:04:55;;;;;;;3.17;1.45;;;;;;;23.99;46.54;96445.66;5023466;28;20050;-60
2022/08/15 10:07:56;;;;;;;2.15;1.30;;;;;;;24.12;46.29;96440.78;5026388;28;20467;-60
2022/08/15 10:10:45;;;;;;;2.07;1.30;;;;;;;23.92;46.29;96442.72;5026826;28;20497;-60
2022/08/15 10:13:22;;;;;;;2.22;1.17;;;;;;;23.86;47.65;96436.69;5026678;28;20279;-59
2022/08/15 10:15:50;;;;;;;2.13;1.23;;;;;;;23.97;47.54;96428.63;5022587;28;20365;-60
2022/08/15 10:18:25;;;;;;;2.53;1.20;;;;;;;24.11;46.74;96430.91;5020744;28;20049;-60
2022/08/15 10:20:58;;;;;;;2.40;1.30;;;;;;;24.21;45.98;96440.56;5018456;28;20045;-59
2022/08/15 10:23:36;;;;;;;2.75;1.30;;;;;;;23.57;47.50;96439.63;5024438;28;20408;-59
2022/08/15 10:26:18;;;;;;;2.78;1.33;;;;;;;23.61;47.94;96436.94;5020190;28;20509;-60
2022/08/15 10:29:02;;;;;;;2.65;1.17;;;;;;;23.72;47.11;96435.22;5022242;28;20116;-60
2022/08/15 10:31:40;;;;;;;3.28;1.45;;;;;;;23.64;47.59;96439.81;5023169;28;20045;-60
2022/08/15 10:34:35;;;;;;;2.50;1.10;;;;;;;23.95;47.75;96434.50;5023202;28;20045;-60
2022/08/15 10:37:05;;;;;;;2.42;1.20;;;;;;;24.24;46.89;96424.03;5018010;28;20049;-60
2022/08/15 10:39:38;;;;;;;3.25;1.40;;;;;;;24.16;45.95;96414.81;5019715;28;20084;-60
2022/08/15 10:42:35;;;;;;;2.42;1.30;;;;;;;24.36;45.83;96405.69;5021839;28;20052;-59
2022/08/15 10:45:34;;;;;;;2.80;1.55;;;;;;;24.33;45.48;96409.19;5020448;28;20054;-60
2022/08/15 10:48:46;;;;;;;2.63;1.30;;;;;;;24.48;45.65;96411.06;5021649;28;20482;-60
2022/08/15 10:51:40;;;;;;;2.80;1.50;;;;;;;24.65;45.23;96404.22;4991555;28;20463;-60
2022/08/15 10:54:18;;;;;;;2.88;1.27;;;;;;;24.66;45.46;96414.13;5016507;28;20053;-60
2022/08/15 10:56:45;;;;;;;3.33;1.30;;;;;;;24.83;44.32;96412.03;5019164;28;20175;-60
2022/08/15 10:59:46;;;;;;;4.35;1.48;;;;;;;24.73;44.19;96399.59;5024142;28;20172;-60
2022/08/15 11:02:24;;;;;;;3.55;1.67;;;;;;;24.90;43.16;96395.56;5020174;28;20459;-59
2022/08/15 11:05:12;;;;;;;2.90;1.60;;;;;;;25.09;42.72;96398.63;5022911;28;20420;-61
2022/08/15 11:07:47;;;;;;;3.67;1.90;;;;;;;25.29;42.29;96396.53;5024333;28;20041;-59
2022/08/15 11:10:27;;;;;;;3.10;1.67;;;;;;;25.26;41.85;96398.09;5025648;28;20440;-60
2022/08/15 11:12:59;;;;;;;4.47;1.80;;;;;;;25.16;42.50;96404.25;5025282;28;20107;-60
2022/08/15 11:15:44;;;;;;;2.28;1.70;;;;;;;25.25;41.96;96395.69;5022379;28;20129;-60
2022/08/15 11:18:11;;;;;;;4.57;1.77;;;;;;;25.17;41.73;96403.88;5021863;28;20321;-61
2022/08/15 11:20:52;;;;;;;2.55;1.58;;;;;;;25.23;41.92;96409.09;5020540;28;20155;-62
2022/08/15 11:23:54;;;;;;;4.32;1.60;;;;;;;25.06;41.97;96402.94;5023893;28;20049;-62
2022/08/15 11:26:30;;;;;;;2.95;1.65;;;;;;;24.93;42.41;96399.56;5012870;28;20062;-62
2022/08/15 11:29:10;;;;;;;3.22;1.60;;;;;;;24.93;42.08;96394.03;5023293;28;20585;-62
2022/08/15 11:31:48;;;;;;;4.20;1.90;;;;;;;24.75;42.11;96391.75;5019452;28;20037;-62
2022/08/15 11:34:29;;;;;;;4.47;1.83;;;;;;;24.76;42.03;96389.78;5024617;28;20041;-62
2022/08/15 11:37:28;;;;;;;3.40;1.77;;;;;;;24.90;42.03;96386.44;5024190;28;20048;-62
2022/08/15 11:39:57;;;;;;;3.75;1.80;;;;;;;24.96;41.96;96384.97;5025424;28;20150;-62
2022/08/15 11:42:31;;;;;;;4.47;1.88;;;;;;;24.94;41.57;96379.00;5025036;28;20051;-61
2022/08/15 11:45:15;;;;;;;5.53;2.10;;;;;;;24.80;42.15;96379.53;5019522;28;20504;-62
2022/08/15 11:47:49;;;;;;;5.50;1.83;;;;;;;24.85;41.57;96384.81;5012754;28;20046;-62
2022/08/15 11:50:30;;;;;;;3.53;1.73;;;;;;;24.99;41.81;96383.44;5010461;28;20046;-62
2022/08/15 11:53:01;;;;;;;3.40;1.85;;;;;;;25.18;41.37;96379.78;5021351;28;20048;-61
2022/08/15 11:55:32;;;;;;;3.08;1.75;;;;;;;25.50;40.38;96379.41;5015205;28;20045;-61
2022/08/15 11:58:03;;;;;;;3.25;2.00;;;;;;;25.77;39.96;96378.59;5015137;28;20097;-62
2022/08/15 12:00:51;;;;;;;3.38;1.70;;;;;;;25.77;40.22;96373.84;5017274;28;20112;-61
2022/08/15 12:03:30;;;;;;;4.70;1.60;;;;;;;25.73;39.56;96367.47;5013293;28;20049;-61
2022/08/15 12:06:29;;;;;;;4.80;1.80;;;;;;;25.74;39.97;96371.84;5021013;28;20405;-62
2022/08/15 12:09:22;;;;;;;3.50;1.77;;;;;;;25.82;39.53;96370.75;5022658;28;20077;-61
2022/08/15 12:12:24;;;;;;;4.53;1.83;;;;;;;25.70;39.97;96365.44;5014058;28;20102;-61
2022/08/15 12:14:57;;;;;;;4.25;1.85;;;;;;;25.81;39.51;96363.59;5022377;28;20049;-61
2022/08/15 12:17:28;;;;;;;3.28;1.90;;;;;;;25.74;39.98;96366.28;5023457;28;20535;-62
2022/08/15 12:20:33;;;;;;;4.68;1.80;;;;;;;26.00;39.36;96369.34;5012852;28;20184;-61
2022/08/15 12:23:28;;;;;;;4.82;1.92;;;;;;;26.01;39.65;96371.75;5023892;28;20059;-61
2022/08/15 12:26:05;;;;;;;2.60;1.50;;;;;;;26.10;38.70;96368.69;5023552;28;20080;-62
2022/08/15 12:28:55;;;;;;;4.05;1.80;;;;;;;25.71;39.89;96367.84;5023504;28;20204;-62
2022/08/15 12:31:34;;;;;;;5.15;2.20;;;;;;;26.21;38.88;96366.00;5019723;28;20096;-62
2022/08/15 12:34:23;;;;;;;3.28;1.88;;;;;;;26.36;38.86;96362.22;5023506;28;20050;-62
2022/08/15 12:37:13;;;;;;;3.92;1.90;;;;;;;26.78;38.08;96369.72;5023165;28;20132;-61
2022/08/15 12:40:08;;;;;;;4.22;2.17;;;;;;;26.81;37.75;96361.44;5023852;28;20049;-62
2022/08/15 12:42:55;;;;;;;4.90;1.83;;;;;;;26.45;38.77;96366.66;5012398;28;20073;-62
2022/08/15 12:45:26;;;;;;;3.65;1.90;;;;;;;26.29;39.10;96378.00;5023707;28;20104;-62
2022/08/15 12:48:05;;;;;;;5.03;1.98;;;;;;;26.15;38.98;96371.09;5024033;28;20160;-61